Cleves, OH

9:00 PM EST on February 01, 2015 (GMT -0500)
Cleves | Change Station
CLOSE
Current Station
Personal Weather Station
Location: Cleves, OH
Elevation: 719 ft
Nearby Weather Stations
Active Advisory: Special Statement

Elev 719 ft 39.21 °N, 84.69 °W | Updated 9 minutes ago

Overcast
Overcast
45.5 °F
Feels Like 46 °F
N
1.0
Wind Variable Wind from East
Gusts 4.0 mph

Today
High -- | Low -- °F
--% Chance of Precip.
Yesterday
High -- | Low -- °F
Precip. -- in
7:45 AM 5:59 PM
Waxing Gibbous, 97% visible
Pressure 29.53 in
Visibility 1.5 miles
Clouds Few 400 ft
Mostly Cloudy 600 ft
Overcast 1000 ft
Windchill 46 °F
Dew Point 44 °F
Humidity 94%
Rainfall 0.27 in
Snow Depth Not available.
UV 0 out of 12
Pollen .10 out of 12
Air Quality Not available.
Flu Activity Not available.
METAR KCVG 020152Z 22006KT 1 1/2SM BR FEW004 BKN006 OVC010 08/07 A2953 RMK AO2 SFC VIS 4 RAE33 SLP000 P0001 T00830067

More Conditions Fewer Conditions

Pressure 29.53 in
Visibility 1.5 miles
Clouds Few 400 ft
Mostly Cloudy 600 ft
Overcast 1000 ft
Windchill 46 °F
Dew Point 44 °F
Humidity 94%
Rainfall 0.27 in
Snow Depth Not available.
UV 0 out of 12
Pollen .10 out of 12
Air Quality Not available.
Flu Activity Not available.
METAR KCVG 020152Z 22006KT 1 1/2SM BR FEW004 BKN006 OVC010 08/07 A2953 RMK AO2 SFC VIS 4 RAE33 SLP000 P0001 T00830067

More Conditions Fewer Conditions

10-Day Weather Forecast

Almanac

Astronomy

Feb. 01, 2015 Rise Set
Actual Time
Civil Twilight
Nautical Twilight
Astronomical Twilight
Moon
Length of Visible Light
Length of Day
Tomorrow will be .
, % of the Moon is Illuminated

Today's Extremes

State Highs State Lows

Community

WunderPhotos

Upload Photos

1,792,654 photos uploaded!

WunderBlogs® & News

Nearby

Air Quality

  Air Quality AQ Index Pollutant
Not available.

Snow Depth

Station Depth Elevation

Earthquake Activity

City Distance Mag. Time & Date
Minimum magnitude displayed is 2.5.

Coastal Water Temperatures

Place Temperature

Nearby Weather Stations